sensor_id;sensor_type;location;lat;lon;timestamp;P1;durP1;ratioP1;P2;durP2;ratioP2
3443;SDS011;1736;52.068;6.968;2022-08-20T00:02:06;9.43;;;7.70;;
3443;SDS011;1736;52.068;6.968;2022-08-20T00:04:33;9.00;;;7.00;;
3443;SDS011;1736;52.068;6.968;2022-08-20T00:06:59;7.57;;;6.60;;
3443;SDS011;1736;52.068;6.968;2022-08-20T00:09:26;9.60;;;6.30;;
3443;SDS011;1736;52.068;6.968;2022-08-20T00:11:52;8.50;;;6.70;;
3443;SDS011;1736;52.068;6.968;2022-08-20T00:14:19;8.13;;;6.40;;
3443;SDS011;1736;52.068;6.968;2022-08-20T00:16:46;8.10;;;5.90;;
3443;SDS011;1736;52.068;6.968;2022-08-20T00:19:13;7.50;;;5.90;;
3443;SDS011;1736;52.068;6.968;2022-08-20T00:21:40;16.43;;;6.13;;
3443;SDS011;1736;52.068;6.968;2022-08-20T00:24:07;7.50;;;6.10;;
3443;SDS011;1736;52.068;6.968;2022-08-20T00:26:33;8.10;;;6.50;;
3443;SDS011;1736;52.068;6.968;2022-08-20T00:29:00;7.13;;;6.43;;
3443;SDS011;1736;52.068;6.968;2022-08-20T00:31:26;7.20;;;6.20;;
3443;SDS011;1736;52.068;6.968;2022-08-20T00:33:53;7.77;;;6.47;;
3443;SDS011;1736;52.068;6.968;2022-08-20T00:36:21;11.53;;;7.03;;
3443;SDS011;1736;52.068;6.968;2022-08-20T00:38:48;8.20;;;6.47;;
3443;SDS011;1736;52.068;6.968;2022-08-20T00:41:17;10.53;;;6.60;;
3443;SDS011;1736;52.068;6.968;2022-08-20T00:43:47;7.90;;;6.70;;
3443;SDS011;1736;52.068;6.968;2022-08-20T00:46:17;20.47;;;6.70;;
3443;SDS011;1736;52.068;6.968;2022-08-20T00:48:46;12.77;;;7.20;;
3443;SDS011;1736;52.068;6.968;2022-08-20T00:51:17;8.90;;;6.40;;
3443;SDS011;1736;52.068;6.968;2022-08-20T00:53:51;12.50;;;7.20;;
3443;SDS011;1736;52.068;6.968;2022-08-20T00:56:20;9.13;;;7.10;;
3443;SDS011;1736;52.068;6.968;2022-08-20T00:58:47;8.80;;;7.27;;
3443;SDS011;1736;52.068;6.968;2022-08-20T01:01:15;10.07;;;7.40;;
3443;SDS011;1736;52.068;6.968;2022-08-20T01:03:43;13.70;;;7.67;;
3443;SDS011;1736;52.068;6.968;2022-08-20T01:06:09;9.23;;;7.17;;
3443;SDS011;1736;52.068;6.968;2022-08-20T01:08:38;8.53;;;7.13;;
3443;SDS011;1736;52.068;6.968;2022-08-20T01:11:06;10.87;;;7.47;;
3443;SDS011;1736;52.068;6.968;2022-08-20T01:13:36;8.00;;;6.73;;
3443;SDS011;1736;52.068;6.968;2022-08-20T01:16:06;7.57;;;6.30;;
3443;SDS011;1736;52.068;6.968;2022-08-20T01:18:38;8.53;;;7.13;;
3443;SDS011;1736;52.068;6.968;2022-08-20T01:21:06;9.50;;;7.13;;
3443;SDS011;1736;52.068;6.968;2022-08-20T01:23:34;8.50;;;6.70;;
3443;SDS011;1736;52.068;6.968;2022-08-20T01:26:11;7.37;;;6.60;;
3443;SDS011;1736;52.068;6.968;2022-08-20T01:28:41;8.37;;;7.00;;
3443;SDS011;1736;52.068;6.968;2022-08-20T01:31:10;9.00;;;7.67;;
3443;SDS011;1736;52.068;6.968;2022-08-20T01:33:39;9.73;;;6.77;;
3443;SDS011;1736;52.068;6.968;2022-08-20T01:36:06;8.07;;;7.00;;
3443;SDS011;1736;52.068;6.968;2022-08-20T01:38:34;8.80;;;7.00;;
3443;SDS011;1736;52.068;6.968;2022-08-20T01:44:09;9.23;;;7.27;;
3443;SDS011;1736;52.068;6.968;2022-08-20T01:46:38;7.97;;;7.10;;
3443;SDS011;1736;52.068;6.968;2022-08-20T01:49:08;13.47;;;7.43;;
3443;SDS011;1736;52.068;6.968;2022-08-20T01:51:37;10.93;;;8.30;;
3443;SDS011;1736;52.068;6.968;2022-08-20T01:54:04;9.80;;;7.83;;
3443;SDS011;1736;52.068;6.968;2022-08-20T01:56:32;13.10;;;8.10;;
3443;SDS011;1736;52.068;6.968;2022-08-20T01:59:02;10.93;;;7.63;;
3443;SDS011;1736;52.068;6.968;2022-08-20T02:01:33;10.13;;;8.30;;
3443;SDS011;1736;52.068;6.968;2022-08-20T02:04:01;10.30;;;8.03;;
3443;SDS011;1736;52.068;6.968;2022-08-20T02:06:30;17.10;;;8.80;;
3443;SDS011;1736;52.068;6.968;2022-08-20T02:09:00;9.03;;;7.17;;
3443;SDS011;1736;52.068;6.968;2022-08-20T02:11:28;11.23;;;8.90;;
3443;SDS011;1736;52.068;6.968;2022-08-20T02:13:56;10.00;;;7.30;;
3443;SDS011;1736;52.068;6.968;2022-08-20T02:16:25;13.20;;;8.67;;
3443;SDS011;1736;52.068;6.968;2022-08-20T02:18:56;13.73;;;8.70;;
3443;SDS011;1736;52.068;6.968;2022-08-20T02:21:26;12.80;;;8.77;;
3443;SDS011;1736;52.068;6.968;2022-08-20T02:23:55;11.40;;;9.00;;
3443;SDS011;1736;52.068;6.968;2022-08-20T02:26:22;11.00;;;8.73;;
3443;SDS011;1736;52.068;6.968;2022-08-20T02:28:50;11.40;;;9.00;;
3443;SDS011;1736;52.068;6.968;2022-08-20T02:31:17;11.93;;;8.57;;
3443;SDS011;1736;52.068;6.968;2022-08-20T02:33:47;13.97;;;8.53;;
3443;SDS011;1736;52.068;6.968;2022-08-20T02:36:14;13.07;;;8.60;;
3443;SDS011;1736;52.068;6.968;2022-08-20T02:38:43;11.87;;;8.17;;
3443;SDS011;1736;52.068;6.968;2022-08-20T02:41:11;10.57;;;8.03;;
3443;SDS011;1736;52.068;6.968;2022-08-20T02:43:37;9.63;;;7.70;;
3443;SDS011;1736;52.068;6.968;2022-08-20T02:46:05;13.33;;;9.40;;
3443;SDS011;1736;52.068;6.968;2022-08-20T02:48:32;10.03;;;8.53;;
3443;SDS011;1736;52.068;6.968;2022-08-20T02:51:02;12.40;;;8.17;;
3443;SDS011;1736;52.068;6.968;2022-08-20T02:53:31;10.17;;;8.03;;
3443;SDS011;1736;52.068;6.968;2022-08-20T02:56:00;16.60;;;9.00;;
3443;SDS011;1736;52.068;6.968;2022-08-20T02:58:26;10.27;;;7.80;;
3443;SDS011;1736;52.068;6.968;2022-08-20T03:00:53;10.57;;;8.37;;
3443;SDS011;1736;52.068;6.968;2022-08-20T03:03:20;11.73;;;8.77;;
3443;SDS011;1736;52.068;6.968;2022-08-20T03:05:49;11.80;;;8.70;;
3443;SDS011;1736;52.068;6.968;2022-08-20T03:08:19;14.53;;;9.70;;
3443;SDS011;1736;52.068;6.968;2022-08-20T03:10:46;14.70;;;8.77;;
3443;SDS011;1736;52.068;6.968;2022-08-20T03:13:14;16.57;;;11.40;;
3443;SDS011;1736;52.068;6.968;2022-08-20T03:15:42;13.73;;;9.40;;
3443;SDS011;1736;52.068;6.968;2022-08-20T03:18:10;16.03;;;11.27;;
3443;SDS011;1736;52.068;6.968;2022-08-20T03:20:37;14.47;;;10.43;;
3443;SDS011;1736;52.068;6.968;2022-08-20T03:23:04;15.77;;;10.77;;
3443;SDS011;1736;52.068;6.968;2022-08-20T03:25:32;15.80;;;11.93;;
3443;SDS011;1736;52.068;6.968;2022-08-20T03:27:59;16.23;;;11.63;;
3443;SDS011;1736;52.068;6.968;2022-08-20T03:30:26;16.53;;;10.87;;
3443;SDS011;1736;52.068;6.968;2022-08-20T03:32:54;18.13;;;11.27;;
3443;SDS011;1736;52.068;6.968;2022-08-20T03:35:22;18.93;;;12.40;;
3443;SDS011;1736;52.068;6.968;2022-08-20T03:37:49;23.77;;;14.27;;
3443;SDS011;1736;52.068;6.968;2022-08-20T03:40:17;24.33;;;15.60;;
3443;SDS011;1736;52.068;6.968;2022-08-20T03:42:47;22.73;;;15.07;;
3443;SDS011;1736;52.068;6.968;2022-08-20T03:45:13;26.33;;;14.60;;
3443;SDS011;1736;52.068;6.968;2022-08-20T03:47:41;24.57;;;14.50;;
3443;SDS011;1736;52.068;6.968;2022-08-20T03:50:08;23.60;;;15.50;;
3443;SDS011;1736;52.068;6.968;2022-08-20T03:52:36;28.07;;;16.37;;
3443;SDS011;1736;52.068;6.968;2022-08-20T03:55:03;26.63;;;15.90;;
3443;SDS011;1736;52.068;6.968;2022-08-20T03:57:30;28.83;;;15.17;;
3443;SDS011;1736;52.068;6.968;2022-08-20T03:59:58;24.60;;;16.03;;
3443;SDS011;1736;52.068;6.968;2022-08-20T04:02:24;21.60;;;14.30;;
3443;SDS011;1736;52.068;6.968;2022-08-20T04:04:52;21.10;;;14.07;;
3443;SDS011;1736;52.068;6.968;2022-08-20T04:07:21;20.03;;;14.00;;
3443;SDS011;1736;52.068;6.968;2022-08-20T04:09:51;22.80;;;14.77;;
3443;SDS011;1736;52.068;6.968;2022-08-20T04:12:18;21.80;;;14.20;;
3443;SDS011;1736;52.068;6.968;2022-08-20T04:14:46;25.93;;;14.40;;
3443;SDS011;1736;52.068;6.968;2022-08-20T04:17:14;22.53;;;14.53;;
3443;SDS011;1736;52.068;6.968;2022-08-20T04:19:42;25.10;;;14.87;;
3443;SDS011;1736;52.068;6.968;2022-08-20T04:22:10;24.67;;;13.63;;
3443;SDS011;1736;52.068;6.968;2022-08-20T04:24:38;28.47;;;14.63;;
3443;SDS011;1736;52.068;6.968;2022-08-20T04:27:05;31.73;;;17.10;;
3443;SDS011;1736;52.068;6.968;2022-08-20T04:29:32;30.87;;;17.30;;
3443;SDS011;1736;52.068;6.968;2022-08-20T04:32:00;23.00;;;14.00;;
3443;SDS011;1736;52.068;6.968;2022-08-20T04:34:29;28.37;;;15.37;;
3443;SDS011;1736;52.068;6.968;2022-08-20T04:36:55;22.40;;;13.73;;
3443;SDS011;1736;52.068;6.968;2022-08-20T04:39:22;20.07;;;14.03;;
3443;SDS011;1736;52.068;6.968;2022-08-20T04:41:48;21.50;;;12.80;;
3443;SDS011;1736;52.068;6.968;2022-08-20T04:44:15;20.83;;;13.77;;
3443;SDS011;1736;52.068;6.968;2022-08-20T04:46:42;21.67;;;13.30;;
3443;SDS011;1736;52.068;6.968;2022-08-20T04:49:08;22.90;;;13.30;;
3443;SDS011;1736;52.068;6.968;2022-08-20T04:51:36;23.17;;;13.80;;
3443;SDS011;1736;52.068;6.968;2022-08-20T04:54:03;22.90;;;13.47;;
3443;SDS011;1736;52.068;6.968;2022-08-20T04:56:31;16.70;;;11.40;;
3443;SDS011;1736;52.068;6.968;2022-08-20T04:59:02;20.60;;;11.57;;
3443;SDS011;1736;52.068;6.968;2022-08-20T05:01:29;22.13;;;12.20;;
3443;SDS011;1736;52.068;6.968;2022-08-20T05:03:57;19.40;;;13.10;;
3443;SDS011;1736;52.068;6.968;2022-08-20T05:06:25;17.27;;;12.47;;
3443;SDS011;1736;52.068;6.968;2022-08-20T05:08:55;20.17;;;13.43;;
3443;SDS011;1736;52.068;6.968;2022-08-20T05:11:24;20.47;;;13.70;;
3443;SDS011;1736;52.068;6.968;2022-08-20T05:13:51;19.00;;;11.37;;
3443;SDS011;1736;52.068;6.968;2022-08-20T05:16:17;17.93;;;12.13;;
3443;SDS011;1736;52.068;6.968;2022-08-20T05:18:44;18.23;;;11.57;;
3443;SDS011;1736;52.068;6.968;2022-08-20T05:21:11;17.97;;;10.60;;
3443;SDS011;1736;52.068;6.968;2022-08-20T05:23:38;14.47;;;9.87;;
3443;SDS011;1736;52.068;6.968;2022-08-20T05:26:08;15.57;;;9.70;;
3443;SDS011;1736;52.068;6.968;2022-08-20T05:28:36;17.20;;;9.93;;
3443;SDS011;1736;52.068;6.968;2022-08-20T05:31:04;15.27;;;9.27;;
3443;SDS011;1736;52.068;6.968;2022-08-20T05:33:33;12.53;;;8.97;;
3443;SDS011;1736;52.068;6.968;2022-08-20T05:36:01;13.97;;;9.07;;
3443;SDS011;1736;52.068;6.968;2022-08-20T05:38:29;15.33;;;9.57;;
3443;SDS011;1736;52.068;6.968;2022-08-20T05:40:56;10.63;;;8.33;;
3443;SDS011;1736;52.068;6.968;2022-08-20T05:43:23;11.37;;;8.03;;
3443;SDS011;1736;52.068;6.968;2022-08-20T05:45:50;13.03;;;8.90;;
3443;SDS011;1736;52.068;6.968;2022-08-20T05:48:18;10.33;;;8.13;;
3443;SDS011;1736;52.068;6.968;2022-08-20T05:50:46;13.20;;;8.07;;
3443;SDS011;1736;52.068;6.968;2022-08-20T05:53:14;16.03;;;9.57;;
3443;SDS011;1736;52.068;6.968;2022-08-20T05:55:41;16.10;;;8.47;;
3443;SDS011;1736;52.068;6.968;2022-08-20T05:58:13;12.30;;;8.90;;
3443;SDS011;1736;52.068;6.968;2022-08-20T06:00:43;12.67;;;8.37;;
3443;SDS011;1736;52.068;6.968;2022-08-20T06:03:10;15.30;;;8.97;;
3443;SDS011;1736;52.068;6.968;2022-08-20T06:05:54;14.07;;;8.83;;
3443;SDS011;1736;52.068;6.968;2022-08-20T06:08:21;11.40;;;7.80;;
3443;SDS011;1736;52.068;6.968;2022-08-20T06:10:48;12.23;;;9.27;;
3443;SDS011;1736;52.068;6.968;2022-08-20T06:13:15;12.80;;;9.17;;
3443;SDS011;1736;52.068;6.968;2022-08-20T06:15:41;14.77;;;9.80;;
3443;SDS011;1736;52.068;6.968;2022-08-20T06:18:09;16.77;;;9.80;;
3443;SDS011;1736;52.068;6.968;2022-08-20T06:20:37;12.63;;;8.80;;
3443;SDS011;1736;52.068;6.968;2022-08-20T06:23:04;19.10;;;10.77;;
3443;SDS011;1736;52.068;6.968;2022-08-20T06:25:31;16.37;;;10.00;;
3443;SDS011;1736;52.068;6.968;2022-08-20T06:27:59;13.70;;;9.10;;
3443;SDS011;1736;52.068;6.968;2022-08-20T06:30:26;14.33;;;9.37;;
3443;SDS011;1736;52.068;6.968;2022-08-20T06:32:53;15.07;;;9.10;;
3443;SDS011;1736;52.068;6.968;2022-08-20T06:35:20;12.43;;;8.97;;
3443;SDS011;1736;52.068;6.968;2022-08-20T06:37:47;14.03;;;8.83;;
3443;SDS011;1736;52.068;6.968;2022-08-20T06:40:15;14.90;;;9.20;;
3443;SDS011;1736;52.068;6.968;2022-08-20T06:42:46;11.47;;;8.90;;
3443;SDS011;1736;52.068;6.968;2022-08-20T06:45:14;14.77;;;9.40;;
3443;SDS011;1736;52.068;6.968;2022-08-20T06:47:43;13.93;;;9.80;;
3443;SDS011;1736;52.068;6.968;2022-08-20T06:50:13;12.80;;;8.73;;
3443;SDS011;1736;52.068;6.968;2022-08-20T06:52:41;17.23;;;10.40;;
3443;SDS011;1736;52.068;6.968;2022-08-20T06:55:10;12.10;;;8.73;;
3443;SDS011;1736;52.068;6.968;2022-08-20T06:57:37;12.73;;;9.20;;
3443;SDS011;1736;52.068;6.968;2022-08-20T07:00:05;13.60;;;9.50;;
3443;SDS011;1736;52.068;6.968;2022-08-20T07:02:34;15.07;;;9.90;;
3443;SDS011;1736;52.068;6.968;2022-08-20T07:05:01;16.43;;;9.43;;
3443;SDS011;1736;52.068;6.968;2022-08-20T07:07:30;13.70;;;8.93;;
3443;SDS011;1736;52.068;6.968;2022-08-20T07:10:00;13.47;;;10.03;;
3443;SDS011;1736;52.068;6.968;2022-08-20T07:12:27;16.00;;;10.00;;
3443;SDS011;1736;52.068;6.968;2022-08-20T07:14:53;15.97;;;9.07;;
3443;SDS011;1736;52.068;6.968;2022-08-20T07:17:20;14.43;;;8.10;;
3443;SDS011;1736;52.068;6.968;2022-08-20T07:19:46;15.53;;;9.63;;
3443;SDS011;1736;52.068;6.968;2022-08-20T07:22:13;15.53;;;9.50;;
3443;SDS011;1736;52.068;6.968;2022-08-20T07:24:41;13.07;;;8.77;;
3443;SDS011;1736;52.068;6.968;2022-08-20T07:27:08;10.50;;;8.70;;
3443;SDS011;1736;52.068;6.968;2022-08-20T07:29:34;14.30;;;8.57;;
3443;SDS011;1736;52.068;6.968;2022-08-20T07:32:15;17.00;;;9.37;;
3443;SDS011;1736;52.068;6.968;2022-08-20T07:35:01;16.33;;;8.33;;
3443;SDS011;1736;52.068;6.968;2022-08-20T07:37:27;13.03;;;8.80;;
3443;SDS011;1736;52.068;6.968;2022-08-20T07:39:55;15.60;;;9.50;;
3443;SDS011;1736;52.068;6.968;2022-08-20T07:42:22;12.70;;;8.40;;
3443;SDS011;1736;52.068;6.968;2022-08-20T07:44:48;15.23;;;8.77;;
3443;SDS011;1736;52.068;6.968;2022-08-20T07:47:17;15.10;;;8.07;;
3443;SDS011;1736;52.068;6.968;2022-08-20T07:49:43;15.20;;;7.57;;
3443;SDS011;1736;52.068;6.968;2022-08-20T07:52:10;9.97;;;7.17;;
3443;SDS011;1736;52.068;6.968;2022-08-20T07:54:37;11.57;;;6.73;;
3443;SDS011;1736;52.068;6.968;2022-08-20T07:57:05;14.50;;;7.60;;
3443;SDS011;1736;52.068;6.968;2022-08-20T07:59:33;14.03;;;7.60;;
3443;SDS011;1736;52.068;6.968;2022-08-20T08:01:59;10.97;;;6.70;;
3443;SDS011;1736;52.068;6.968;2022-08-20T08:04:26;15.60;;;8.63;;
3443;SDS011;1736;52.068;6.968;2022-08-20T08:06:53;11.07;;;7.33;;
3443;SDS011;1736;52.068;6.968;2022-08-20T08:09:24;11.17;;;7.10;;
3443;SDS011;1736;52.068;6.968;2022-08-20T08:11:51;9.40;;;6.80;;
3443;SDS011;1736;52.068;6.968;2022-08-20T08:14:23;8.67;;;6.63;;
3443;SDS011;1736;52.068;6.968;2022-08-20T08:16:53;10.77;;;7.10;;
3443;SDS011;1736;52.068;6.968;2022-08-20T08:19:22;7.80;;;6.80;;
3443;SDS011;1736;52.068;6.968;2022-08-20T08:21:50;13.83;;;7.00;;
3443;SDS011;1736;52.068;6.968;2022-08-20T08:24:16;9.57;;;6.70;;
3443;SDS011;1736;52.068;6.968;2022-08-20T08:26:43;12.00;;;6.17;;
3443;SDS011;1736;52.068;6.968;2022-08-20T08:29:09;10.17;;;6.30;;
3443;SDS011;1736;52.068;6.968;2022-08-20T08:31:38;7.10;;;5.50;;
3443;SDS011;1736;52.068;6.968;2022-08-20T08:34:05;13.60;;;6.40;;
3443;SDS011;1736;52.068;6.968;2022-08-20T08:36:31;11.13;;;5.93;;
3443;SDS011;1736;52.068;6.968;2022-08-20T08:38:58;7.73;;;5.93;;
3443;SDS011;1736;52.068;6.968;2022-08-20T08:41:25;9.70;;;6.10;;
3443;SDS011;1736;52.068;6.968;2022-08-20T08:43:58;11.70;;;6.23;;
3443;SDS011;1736;52.068;6.968;2022-08-20T08:46:31;11.53;;;5.40;;
3443;SDS011;1736;52.068;6.968;2022-08-20T08:49:05;11.83;;;6.10;;
3443;SDS011;1736;52.068;6.968;2022-08-20T08:51:40;9.57;;;5.97;;
3443;SDS011;1736;52.068;6.968;2022-08-20T08:54:09;16.30;;;6.57;;
3443;SDS011;1736;52.068;6.968;2022-08-20T08:56:40;6.40;;;5.27;;
3443;SDS011;1736;52.068;6.968;2022-08-20T08:59:08;7.93;;;4.50;;
3443;SDS011;1736;52.068;6.968;2022-08-20T09:01:39;6.33;;;4.60;;
3443;SDS011;1736;52.068;6.968;2022-08-20T09:04:11;8.57;;;4.93;;
3443;SDS011;1736;52.068;6.968;2022-08-20T09:06:38;6.13;;;4.53;;
3443;SDS011;1736;52.068;6.968;2022-08-20T09:09:09;9.50;;;4.73;;
3443;SDS011;1736;52.068;6.968;2022-08-20T09:11:46;9.10;;;5.17;;
3443;SDS011;1736;52.068;6.968;2022-08-20T09:14:14;8.17;;;4.80;;
3443;SDS011;1736;52.068;6.968;2022-08-20T09:16:41;6.13;;;4.50;;
3443;SDS011;1736;52.068;6.968;2022-08-20T09:19:07;8.20;;;4.37;;
3443;SDS011;1736;52.068;6.968;2022-08-20T09:21:35;8.27;;;4.07;;
3443;SDS011;1736;52.068;6.968;2022-08-20T09:24:02;7.50;;;5.00;;
3443;SDS011;1736;52.068;6.968;2022-08-20T09:26:29;8.00;;;4.83;;
3443;SDS011;1736;52.068;6.968;2022-08-20T09:28:56;7.57;;;4.37;;
3443;SDS011;1736;52.068;6.968;2022-08-20T09:31:23;9.57;;;4.60;;
3443;SDS011;1736;52.068;6.968;2022-08-20T09:33:49;6.63;;;4.20;;
3443;SDS011;1736;52.068;6.968;2022-08-20T09:36:16;9.53;;;3.77;;
3443;SDS011;1736;52.068;6.968;2022-08-20T09:38:44;8.23;;;4.60;;
3443;SDS011;1736;52.068;6.968;2022-08-20T09:41:11;8.20;;;4.70;;
3443;SDS011;1736;52.068;6.968;2022-08-20T09:43:37;10.83;;;5.13;;
3443;SDS011;1736;52.068;6.968;2022-08-20T09:46:04;5.07;;;4.27;;
3443;SDS011;1736;52.068;6.968;2022-08-20T09:48:31;12.77;;;5.33;;
3443;SDS011;1736;52.068;6.968;2022-08-20T09:50:57;8.47;;;4.70;;
3443;SDS011;1736;52.068;6.968;2022-08-20T09:53:24;12.30;;;4.80;;
3443;SDS011;1736;52.068;6.968;2022-08-20T09:55:52;5.27;;;3.50;;
3443;SDS011;1736;52.068;6.968;2022-08-20T09:58:21;6.27;;;3.97;;
3443;SDS011;1736;52.068;6.968;2022-08-20T10:00:50;6.70;;;4.00;;
3443;SDS011;1736;52.068;6.968;2022-08-20T10:03:17;6.00;;;3.20;;
3443;SDS011;1736;52.068;6.968;2022-08-20T10:05:44;6.10;;;3.00;;
3443;SDS011;1736;52.068;6.968;2022-08-20T10:08:11;4.03;;;3.27;;
3443;SDS011;1736;52.068;6.968;2022-08-20T10:10:38;6.33;;;2.80;;
3443;SDS011;1736;52.068;6.968;2022-08-20T10:13:06;5.23;;;3.70;;
3443;SDS011;1736;52.068;6.968;2022-08-20T10:15:32;7.17;;;3.43;;
3443;SDS011;1736;52.068;6.968;2022-08-20T10:18:00;6.87;;;3.00;;
3443;SDS011;1736;52.068;6.968;2022-08-20T10:20:29;5.90;;;3.00;;
3443;SDS011;1736;52.068;6.968;2022-08-20T10:22:56;8.43;;;3.00;;
3443;SDS011;1736;52.068;6.968;2022-08-20T10:25:23;3.70;;;2.83;;
3443;SDS011;1736;52.068;6.968;2022-08-20T10:27:49;8.23;;;2.90;;
3443;SDS011;1736;52.068;6.968;2022-08-20T10:30:18;8.77;;;2.93;;
3443;SDS011;1736;52.068;6.968;2022-08-20T10:32:44;10.07;;;3.20;;
3443;SDS011;1736;52.068;6.968;2022-08-20T10:35:11;8.07;;;3.97;;
3443;SDS011;1736;52.068;6.968;2022-08-20T10:37:37;6.33;;;3.50;;
3443;SDS011;1736;52.068;6.968;2022-08-20T10:40:04;6.67;;;3.40;;
3443;SDS011;1736;52.068;6.968;2022-08-20T10:42:32;5.90;;;3.53;;
3443;SDS011;1736;52.068;6.968;2022-08-20T10:44:58;4.70;;;3.00;;
3443;SDS011;1736;52.068;6.968;2022-08-20T10:47:27;7.90;;;3.53;;
3443;SDS011;1736;52.068;6.968;2022-08-20T10:49:58;5.87;;;2.90;;
3443;SDS011;1736;52.068;6.968;2022-08-20T10:52:26;4.90;;;3.00;;
3443;SDS011;1736;52.068;6.968;2022-08-20T10:54:53;9.60;;;3.53;;
3443;SDS011;1736;52.068;6.968;2022-08-20T10:57:21;6.60;;;3.13;;
3443;SDS011;1736;52.068;6.968;2022-08-20T10:59:49;6.27;;;3.40;;
3443;SDS011;1736;52.068;6.968;2022-08-20T11:02:17;8.00;;;3.90;;
3443;SDS011;1736;52.068;6.968;2022-08-20T11:04:46;9.10;;;3.50;;
3443;SDS011;1736;52.068;6.968;2022-08-20T11:07:15;9.27;;;3.50;;
3443;SDS011;1736;52.068;6.968;2022-08-20T11:09:43;6.10;;;3.20;;
3443;SDS011;1736;52.068;6.968;2022-08-20T11:12:11;7.73;;;4.10;;
3443;SDS011;1736;52.068;6.968;2022-08-20T11:14:38;6.63;;;3.10;;
3443;SDS011;1736;52.068;6.968;2022-08-20T11:17:05;7.77;;;3.33;;
3443;SDS011;1736;52.068;6.968;2022-08-20T11:19:32;5.90;;;3.63;;
3443;SDS011;1736;52.068;6.968;2022-08-20T11:22:06;8.50;;;2.93;;
3443;SDS011;1736;52.068;6.968;2022-08-20T11:24:32;5.77;;;3.17;;
3443;SDS011;1736;52.068;6.968;2022-08-20T11:26:59;5.07;;;3.33;;
3443;SDS011;1736;52.068;6.968;2022-08-20T11:29:26;6.00;;;2.50;;
3443;SDS011;1736;52.068;6.968;2022-08-20T11:31:53;3.97;;;2.80;;
3443;SDS011;1736;52.068;6.968;2022-08-20T11:34:19;9.07;;;2.80;;
3443;SDS011;1736;52.068;6.968;2022-08-20T11:36:46;12.70;;;3.10;;
3443;SDS011;1736;52.068;6.968;2022-08-20T11:39:15;8.87;;;3.00;;
3443;SDS011;1736;52.068;6.968;2022-08-20T11:41:41;5.80;;;2.67;;
3443;SDS011;1736;52.068;6.968;2022-08-20T11:44:08;6.70;;;2.97;;
3443;SDS011;1736;52.068;6.968;2022-08-20T11:46:34;6.60;;;2.70;;
3443;SDS011;1736;52.068;6.968;2022-08-20T11:49:01;5.60;;;2.20;;
3443;SDS011;1736;52.068;6.968;2022-08-20T11:51:28;3.73;;;2.60;;
3443;SDS011;1736;52.068;6.968;2022-08-20T11:53:55;8.80;;;2.70;;
3443;SDS011;1736;52.068;6.968;2022-08-20T11:56:22;8.67;;;2.23;;
3443;SDS011;1736;52.068;6.968;2022-08-20T11:58:49;5.73;;;2.43;;
3443;SDS011;1736;52.068;6.968;2022-08-20T12:01:16;5.10;;;2.30;;
3443;SDS011;1736;52.068;6.968;2022-08-20T12:03:43;9.50;;;2.57;;
3443;SDS011;1736;52.068;6.968;2022-08-20T12:06:09;4.23;;;2.20;;
3443;SDS011;1736;52.068;6.968;2022-08-20T12:08:36;3.10;;;2.20;;
3443;SDS011;1736;52.068;6.968;2022-08-20T12:11:02;6.10;;;2.40;;
3443;SDS011;1736;52.068;6.968;2022-08-20T12:13:32;5.47;;;2.47;;
3443;SDS011;1736;52.068;6.968;2022-08-20T12:16:00;4.93;;;2.30;;
3443;SDS011;1736;52.068;6.968;2022-08-20T12:18:27;4.40;;;2.60;;
3443;SDS011;1736;52.068;6.968;2022-08-20T12:20:54;6.83;;;2.63;;
3443;SDS011;1736;52.068;6.968;2022-08-20T12:23:20;7.10;;;2.50;;
3443;SDS011;1736;52.068;6.968;2022-08-20T12:25:47;6.63;;;2.60;;
3443;SDS011;1736;52.068;6.968;2022-08-20T12:28:14;5.47;;;2.60;;
3443;SDS011;1736;52.068;6.968;2022-08-20T12:30:42;12.60;;;2.93;;
3443;SDS011;1736;52.068;6.968;2022-08-20T12:33:09;3.37;;;2.07;;
3443;SDS011;1736;52.068;6.968;2022-08-20T12:35:35;5.53;;;2.43;;
3443;SDS011;1736;52.068;6.968;2022-08-20T12:38:02;6.07;;;2.50;;
3443;SDS011;1736;52.068;6.968;2022-08-20T12:40:29;6.40;;;2.47;;
3443;SDS011;1736;52.068;6.968;2022-08-20T12:42:56;3.57;;;2.73;;
3443;SDS011;1736;52.068;6.968;2022-08-20T12:45:22;4.23;;;2.13;;
3443;SDS011;1736;52.068;6.968;2022-08-20T12:47:50;3.87;;;2.13;;
3443;SDS011;1736;52.068;6.968;2022-08-20T12:50:19;6.00;;;2.30;;
3443;SDS011;1736;52.068;6.968;2022-08-20T12:52:47;5.97;;;2.50;;
3443;SDS011;1736;52.068;6.968;2022-08-20T12:55:16;5.60;;;2.30;;
3443;SDS011;1736;52.068;6.968;2022-08-20T12:57:44;6.13;;;2.40;;
3443;SDS011;1736;52.068;6.968;2022-08-20T13:00:13;5.70;;;2.30;;
3443;SDS011;1736;52.068;6.968;2022-08-20T13:02:41;5.13;;;2.23;;
3443;SDS011;1736;52.068;6.968;2022-08-20T13:05:11;8.70;;;3.00;;
3443;SDS011;1736;52.068;6.968;2022-08-20T13:07:39;6.90;;;2.80;;
3443;SDS011;1736;52.068;6.968;2022-08-20T13:10:07;8.13;;;2.30;;
3443;SDS011;1736;52.068;6.968;2022-08-20T13:12:40;5.60;;;2.70;;
3443;SDS011;1736;52.068;6.968;2022-08-20T13:15:07;4.40;;;2.50;;
3443;SDS011;1736;52.068;6.968;2022-08-20T13:17:35;11.03;;;3.63;;
3443;SDS011;1736;52.068;6.968;2022-08-20T13:20:02;5.60;;;2.23;;
3443;SDS011;1736;52.068;6.968;2022-08-20T13:22:30;4.63;;;2.50;;
3443;SDS011;1736;52.068;6.968;2022-08-20T13:24:57;4.33;;;2.10;;
3443;SDS011;1736;52.068;6.968;2022-08-20T13:27:23;5.43;;;2.20;;
3443;SDS011;1736;52.068;6.968;2022-08-20T13:29:51;8.50;;;2.43;;
3443;SDS011;1736;52.068;6.968;2022-08-20T13:32:19;7.10;;;2.20;;
3443;SDS011;1736;52.068;6.968;2022-08-20T13:34:47;4.57;;;2.37;;
3443;SDS011;1736;52.068;6.968;2022-08-20T13:37:15;3.77;;;2.20;;
3443;SDS011;1736;52.068;6.968;2022-08-20T13:39:44;3.60;;;2.30;;
3443;SDS011;1736;52.068;6.968;2022-08-20T13:42:12;12.30;;;2.50;;
3443;SDS011;1736;52.068;6.968;2022-08-20T13:44:39;7.50;;;2.40;;
3443;SDS011;1736;52.068;6.968;2022-08-20T13:47:13;9.27;;;2.30;;
3443;SDS011;1736;52.068;6.968;2022-08-20T13:49:40;6.27;;;2.37;;
3443;SDS011;1736;52.068;6.968;2022-08-20T13:52:07;2.60;;;1.90;;
3443;SDS011;1736;52.068;6.968;2022-08-20T13:54:34;6.43;;;2.53;;
3443;SDS011;1736;52.068;6.968;2022-08-20T13:57:06;7.63;;;2.53;;
3443;SDS011;1736;52.068;6.968;2022-08-20T13:59:35;3.50;;;1.93;;
3443;SDS011;1736;52.068;6.968;2022-08-20T14:02:03;7.63;;;2.53;;
3443;SDS011;1736;52.068;6.968;2022-08-20T14:04:30;7.73;;;2.60;;
3443;SDS011;1736;52.068;6.968;2022-08-20T14:06:57;8.17;;;2.20;;
3443;SDS011;1736;52.068;6.968;2022-08-20T14:09:23;8.27;;;2.47;;
3443;SDS011;1736;52.068;6.968;2022-08-20T14:11:50;2.90;;;2.17;;
3443;SDS011;1736;52.068;6.968;2022-08-20T14:14:18;3.40;;;1.93;;
3443;SDS011;1736;52.068;6.968;2022-08-20T14:16:44;5.47;;;2.60;;
3443;SDS011;1736;52.068;6.968;2022-08-20T14:19:12;6.50;;;2.43;;
3443;SDS011;1736;52.068;6.968;2022-08-20T14:21:38;6.97;;;2.33;;
3443;SDS011;1736;52.068;6.968;2022-08-20T14:24:05;4.43;;;2.47;;
3443;SDS011;1736;52.068;6.968;2022-08-20T14:26:31;6.03;;;2.13;;
3443;SDS011;1736;52.068;6.968;2022-08-20T14:28:58;7.20;;;2.50;;
3443;SDS011;1736;52.068;6.968;2022-08-20T14:31:26;5.57;;;2.57;;
3443;SDS011;1736;52.068;6.968;2022-08-20T14:33:52;7.87;;;2.37;;
3443;SDS011;1736;52.068;6.968;2022-08-20T14:36:19;6.43;;;2.30;;
3443;SDS011;1736;52.068;6.968;2022-08-20T14:38:45;4.73;;;2.67;;
3443;SDS011;1736;52.068;6.968;2022-08-20T14:41:12;6.37;;;2.67;;
3443;SDS011;1736;52.068;6.968;2022-08-20T14:43:38;4.07;;;2.30;;
3443;SDS011;1736;52.068;6.968;2022-08-20T14:46:05;7.60;;;2.23;;
3443;SDS011;1736;52.068;6.968;2022-08-20T14:48:33;7.83;;;2.20;;
3443;SDS011;1736;52.068;6.968;2022-08-20T14:50:59;6.67;;;2.50;;
3443;SDS011;1736;52.068;6.968;2022-08-20T14:53:27;3.13;;;2.83;;
3443;SDS011;1736;52.068;6.968;2022-08-20T14:55:53;4.27;;;2.40;;
3443;SDS011;1736;52.068;6.968;2022-08-20T14:58:20;5.97;;;2.60;;
3443;SDS011;1736;52.068;6.968;2022-08-20T15:00:46;6.10;;;2.60;;
3443;SDS011;1736;52.068;6.968;2022-08-20T15:03:13;4.73;;;2.20;;
3443;SDS011;1736;52.068;6.968;2022-08-20T15:05:40;7.63;;;2.90;;
3443;SDS011;1736;52.068;6.968;2022-08-20T15:08:07;4.60;;;2.43;;
3443;SDS011;1736;52.068;6.968;2022-08-20T15:10:34;10.03;;;2.60;;
3443;SDS011;1736;52.068;6.968;2022-08-20T15:13:01;6.43;;;2.47;;
3443;SDS011;1736;52.068;6.968;2022-08-20T15:15:27;3.87;;;2.03;;